createdAt,value
2023-01-15T00:01:35.307Z,76.51
2023-01-15T00:04:06.907Z,76.32
2023-01-15T00:06:37.452Z,76.43
2023-01-15T00:09:07.683Z,76.31
2023-01-15T00:11:37.152Z,76.21
2023-01-15T00:14:06.477Z,76.04
2023-01-15T00:16:36.161Z,76.04
2023-01-15T00:19:08.668Z,75.96
2023-01-15T00:21:37.351Z,75.65
2023-01-15T00:24:26.915Z,75.68
2023-01-15T00:27:15.273Z,75.47
2023-01-15T00:29:44.723Z,75.57
2023-01-15T00:32:14.106Z,75.40
2023-01-15T00:34:43.658Z,75.37
2023-01-15T00:37:13.121Z,75.36
2023-01-15T00:39:43.100Z,75.40
2023-01-15T00:42:12.725Z,75.19
2023-01-15T00:44:42.384Z,75.36
2023-01-15T00:47:15.555Z,75.35
2023-01-15T00:49:46.139Z,75.30
2023-01-15T00:52:15.703Z,75.20
2023-01-15T00:54:45.755Z,75.03
2023-01-15T00:57:15.760Z,75.10
2023-01-15T00:59:45.548Z,75.18
2023-01-15T01:02:15.204Z,74.73
2023-01-15T01:04:44.781Z,74.42
2023-01-15T01:07:14.785Z,74.38
2023-01-15T01:09:44.264Z,74.65
2023-01-15T01:12:13.797Z,74.83
2023-01-15T01:14:45.082Z,74.89
2023-01-15T01:17:14.739Z,74.92
2023-01-15T01:19:44.087Z,75.01
2023-01-15T01:22:13.612Z,75.27
2023-01-15T01:24:43.308Z,75.31
2023-01-15T01:27:13.126Z,75.15
2023-01-15T01:29:42.831Z,75.20
2023-01-15T01:32:11.449Z,75.36
2023-01-15T01:34:41.175Z,75.24
2023-01-15T01:37:10.826Z,75.19
2023-01-15T01:39:40.529Z,75.21
2023-01-15T01:42:16.498Z,75.00
2023-01-15T01:44:45.843Z,75.07
2023-01-15T01:47:23.911Z,75.14
2023-01-15T01:49:59.261Z,75.03
2023-01-15T01:52:39.570Z,74.89
2023-01-15T01:55:09.942Z,74.67
2023-01-15T01:57:41.156Z,74.53
2023-01-15T02:00:12.018Z,74.63
2023-01-15T02:02:45.890Z,74.03
2023-01-15T02:05:20.657Z,73.78
2023-01-15T02:07:50.597Z,74.18
2023-01-15T02:10:20.051Z,74.26
2023-01-15T02:12:54.846Z,74.30
2023-01-15T02:15:34.147Z,73.89
2023-01-15T02:18:17.273Z,73.86
2023-01-15T02:20:50.950Z,73.77
2023-01-15T02:23:32.869Z,74.22
2023-01-15T02:26:14.192Z,74.45
2023-01-15T02:28:45.644Z,74.72
2023-01-15T02:31:27.642Z,74.58
2023-01-15T02:34:11.720Z,74.40
2023-01-15T02:36:45.146Z,74.43
2023-01-15T02:39:24.678Z,74.50
2023-01-15T02:41:56.484Z,74.43
2023-01-15T02:44:33.087Z,74.12
2023-01-15T02:47:04.803Z,74.11
2023-01-15T02:49:34.984Z,74.33
2023-01-15T02:52:27.790Z,74.49
2023-01-15T02:55:01.112Z,74.27
2023-01-15T02:57:35.393Z,74.39
2023-01-15T03:00:07.576Z,74.42
2023-01-15T03:02:56.301Z,74.45
2023-01-15T03:05:29.396Z,74.90
2023-01-15T03:08:01.402Z,74.89
2023-01-15T03:10:43.203Z,75.01
2023-01-15T03:13:17.587Z,75.15
2023-01-15T03:16:24.284Z,75.22
2023-01-15T03:18:57.181Z,74.91
2023-01-15T03:21:48.868Z,74.57
2023-01-15T03:24:32.321Z,74.48
2023-01-15T03:27:02.749Z,75.01
2023-01-15T03:29:35.133Z,75.44
2023-01-15T03:32:06.657Z,75.56
2023-01-15T03:34:56.240Z,75.74
2023-01-15T03:37:27.974Z,75.67
2023-01-15T03:39:58.860Z,75.94
2023-01-15T03:42:48.374Z,76.14
2023-01-15T03:45:24.371Z,76.64
2023-01-15T03:48:02.830Z,76.40
2023-01-15T03:50:44.529Z,76.68
2023-01-15T03:53:21.625Z,76.68
2023-01-15T03:55:56.952Z,76.94
2023-01-15T03:58:29.510Z,77.10
2023-01-15T04:01:02.134Z,76.96
2023-01-15T04:03:33.263Z,77.09
2023-01-15T04:06:04.119Z,77.03
2023-01-15T04:08:38.153Z,77.13
2023-01-15T04:11:08.286Z,76.78
2023-01-15T04:13:44.846Z,77.04
2023-01-15T04:16:27.733Z,77.13
2023-01-15T04:18:57.456Z,77.04
2023-01-15T04:21:27.567Z,76.88
2023-01-15T04:23:57.354Z,76.94
2023-01-15T04:26:26.892Z,76.65
2023-01-15T04:28:56.406Z,76.61
2023-01-15T04:31:25.841Z,76.44
2023-01-15T04:33:54.306Z,76.12
2023-01-15T04:36:23.524Z,76.31
2023-01-15T04:38:52.906Z,76.09
2023-01-15T04:41:40.894Z,76.81
2023-01-15T04:44:10.575Z,77.02
2023-01-15T04:46:41.489Z,77.02
2023-01-15T04:49:15.015Z,77.07
2023-01-15T04:51:45.172Z,76.62
2023-01-15T04:54:15.455Z,76.71
2023-01-15T04:56:46.917Z,76.66
2023-01-15T04:59:17.409Z,76.74
2023-01-15T05:02:01.985Z,76.52
2023-01-15T05:04:34.038Z,76.08
2023-01-15T05:07:04.879Z,75.82
2023-01-15T05:09:35.071Z,75.79
2023-01-15T05:12:04.871Z,75.82
2023-01-15T05:14:34.460Z,75.38
2023-01-15T05:17:05.851Z,75.36
2023-01-15T05:19:35.327Z,74.89
2023-01-15T05:22:03.856Z,75.03
2023-01-15T05:24:33.783Z,75.05
2023-01-15T05:27:06.156Z,75.16
2023-01-15T05:29:36.261Z,74.89
2023-01-15T05:32:05.222Z,74.91
2023-01-15T05:34:34.855Z,75.05
2023-01-15T05:37:04.589Z,75.25
2023-01-15T05:39:34.156Z,74.86
2023-01-15T05:42:03.807Z,75.34
2023-01-15T05:44:33.377Z,74.95
2023-01-15T05:47:06.320Z,75.80
2023-01-15T05:49:38.170Z,75.61
2023-01-15T05:52:08.775Z,76.11
2023-01-15T05:54:38.402Z,76.16
2023-01-15T05:57:11.202Z,76.23
2023-01-15T05:59:41.987Z,76.21
2023-01-15T06:02:11.607Z,76.16
2023-01-15T06:04:40.923Z,76.54
2023-01-15T06:07:10.571Z,76.58
2023-01-15T06:09:40.099Z,76.73
2023-01-15T06:12:09.214Z,76.71
2023-01-15T06:14:37.817Z,76.64
2023-01-15T06:17:07.250Z,76.63
2023-01-15T06:19:36.587Z,76.53
2023-01-15T06:22:05.962Z,76.38
2023-01-15T06:24:37.078Z,76.17
2023-01-15T06:27:08.263Z,76.48
2023-01-15T06:29:37.471Z,76.49
2023-01-15T06:32:06.973Z,76.54
2023-01-15T06:34:36.908Z,76.58
2023-01-15T06:37:07.189Z,76.83
2023-01-15T06:39:36.508Z,77.07
2023-01-15T06:42:25.280Z,76.91
2023-01-15T06:45:24.268Z,77.53
2023-01-15T06:47:53.896Z,77.48
2023-01-15T06:50:23.718Z,77.81
2023-01-15T06:52:53.443Z,77.79
2023-01-15T06:55:24.490Z,77.17
2023-01-15T06:57:54.205Z,77.58
2023-01-15T07:00:25.450Z,77.61
2023-01-15T07:02:55.309Z,77.57
2023-01-15T07:05:24.840Z,77.99
2023-01-15T07:07:54.595Z,78.22
2023-01-15T07:10:23.840Z,78.12
2023-01-15T07:12:53.355Z,78.33
2023-01-15T07:15:22.660Z,78.33
2023-01-15T07:17:55.355Z,78.08
2023-01-15T07:20:25.011Z,77.82
2023-01-15T07:22:54.648Z,77.97
2023-01-15T07:25:23.864Z,77.51
2023-01-15T07:27:55.501Z,77.56
2023-01-15T07:30:24.783Z,77.38
2023-01-15T07:32:56.468Z,77.31
2023-01-15T07:35:27.890Z,77.74
2023-01-15T07:37:57.478Z,77.58
2023-01-15T07:40:27.228Z,77.45
2023-01-15T07:43:16.850Z,77.46
2023-01-15T07:46:09.216Z,77.46
2023-01-15T07:48:58.711Z,77.26
2023-01-15T07:51:28.224Z,77.20
2023-01-15T07:53:56.815Z,76.92
2023-01-15T07:56:25.409Z,76.80
2023-01-15T07:58:55.892Z,76.85
2023-01-15T08:01:25.519Z,76.96
2023-01-15T08:03:55.384Z,76.84
2023-01-15T08:06:25.291Z,77.07
2023-01-15T08:08:54.922Z,77.13
2023-01-15T08:11:44.375Z,77.26
2023-01-15T08:14:31.408Z,77.39
2023-01-15T08:17:01.105Z,77.29
2023-01-15T08:19:30.834Z,77.41
2023-01-15T08:22:03.525Z,77.35
2023-01-15T08:24:32.858Z,77.77
2023-01-15T08:27:02.528Z,78.08
2023-01-15T08:29:32.320Z,77.84
2023-01-15T08:32:03.244Z,77.08
2023-01-15T08:34:31.869Z,77.19
2023-01-15T08:37:01.437Z,76.98
2023-01-15T08:39:31.091Z,77.02
2023-01-15T08:42:00.317Z,76.34
2023-01-15T08:44:29.992Z,75.97
2023-01-15T08:46:59.295Z,76.04
2023-01-15T08:49:28.962Z,75.10
2023-01-15T08:51:58.264Z,74.55
2023-01-15T08:54:28.040Z,73.72
2023-01-15T08:56:57.350Z,73.25
2023-01-15T08:59:27.325Z,72.78
2023-01-15T09:01:57.269Z,72.85
2023-01-15T09:04:27.405Z,72.76
2023-01-15T09:06:57.068Z,70.46
2023-01-15T09:09:26.795Z,70.10
2023-01-15T09:11:55.506Z,69.85
2023-01-15T09:14:58.674Z,68.88
2023-01-15T09:17:14.327Z,67.40
2023-01-15T09:19:44.445Z,66.77
2023-01-15T09:22:13.831Z,66.87
2023-01-15T09:24:43.387Z,66.23
2023-01-15T09:27:12.866Z,66.81
2023-01-15T09:29:42.543Z,67.04
2023-01-15T09:32:11.351Z,65.56
2023-01-15T09:34:40.999Z,65.75
2023-01-15T09:37:12.581Z,64.08
2023-01-15T09:39:41.994Z,64.57
2023-01-15T09:42:29.737Z,64.27
2023-01-15T09:45:12.094Z,63.99
2023-01-15T09:47:44.160Z,63.39
2023-01-15T09:50:30.609Z,63.25
2023-01-15T09:53:22.338Z,63.07
2023-01-15T09:55:55.377Z,62.39
2023-01-15T09:58:32.930Z,61.57
2023-01-15T10:01:03.326Z,61.54
2023-01-15T10:03:36.279Z,61.24
2023-01-15T10:06:23.377Z,60.13
2023-01-15T10:08:57.575Z,60.80
2023-01-15T10:11:58.004Z,61.01
2023-01-15T10:14:56.839Z,61.99
2023-01-15T10:17:28.993Z,61.17
2023-01-15T10:19:58.755Z,61.52
2023-01-15T10:22:46.019Z,60.41
2023-01-15T10:25:25.467Z,59.42
2023-01-15T10:27:58.540Z,59.55
2023-01-15T10:30:34.945Z,58.59
2023-01-15T10:33:15.325Z,59.14
2023-01-15T10:35:55.062Z,58.60
2023-01-15T10:38:30.551Z,58.35
2023-01-15T10:41:06.052Z,57.29
2023-01-15T10:43:53.947Z,56.33
2023-01-15T10:46:28.684Z,57.67
2023-01-15T10:49:00.046Z,57.00
2023-01-15T10:51:50.068Z,57.60
2023-01-15T10:54:28.671Z,56.02
2023-01-15T10:57:18.272Z,55.61
2023-01-15T10:59:52.455Z,57.26
2023-01-15T11:02:41.372Z,55.83
2023-01-15T11:05:16.998Z,55.00
2023-01-15T11:08:12.965Z,55.71
2023-01-15T11:10:41.481Z,56.15
2023-01-15T11:13:45.295Z,55.53
2023-01-15T11:16:37.637Z,54.67
2023-01-15T11:19:26.839Z,54.65
2023-01-15T11:21:55.530Z,53.64
2023-01-15T11:24:24.745Z,54.45
2023-01-15T11:26:55.307Z,53.99
2023-01-15T11:29:31.998Z,54.31
2023-01-15T11:32:01.718Z,54.47
2023-01-15T11:34:31.361Z,54.42
2023-01-15T11:37:04.285Z,55.24
2023-01-15T11:39:33.939Z,55.16
2023-01-15T11:42:26.765Z,55.36
2023-01-15T11:45:15.890Z,55.06
2023-01-15T11:48:15.448Z,54.07
2023-01-15T11:50:52.978Z,54.28
2023-01-15T11:53:25.827Z,53.96
2023-01-15T11:55:55.171Z,53.77
2023-01-15T11:58:25.490Z,54.22
2023-01-15T12:00:57.450Z,54.47
2023-01-15T12:03:28.208Z,54.95
2023-01-15T12:05:59.189Z,55.13
2023-01-15T12:08:44.729Z,54.44
2023-01-15T12:11:28.961Z,54.32
2023-01-15T12:14:09.470Z,54.57
2023-01-15T12:16:47.626Z,54.88
2023-01-15T12:19:20.329Z,55.10
2023-01-15T12:22:00.174Z,54.60
2023-01-15T12:24:38.665Z,54.32
2023-01-15T12:27:20.295Z,53.91
2023-01-15T12:30:05.496Z,54.43
2023-01-15T12:32:42.774Z,54.44
2023-01-15T12:35:26.659Z,54.06
2023-01-15T12:38:03.400Z,53.76
2023-01-15T12:40:48.185Z,53.92
2023-01-15T12:43:41.997Z,55.12
2023-01-15T12:46:16.929Z,55.22
2023-01-15T12:48:54.880Z,55.30
2023-01-15T12:51:31.196Z,54.68
2023-01-15T12:54:05.372Z,54.71
2023-01-15T12:56:35.467Z,55.08
2023-01-15T12:59:14.799Z,55.15
2023-01-15T13:02:00.025Z,54.54
2023-01-15T13:04:47.411Z,55.03
2023-01-15T13:07:30.523Z,56.24
2023-01-15T13:09:59.139Z,55.73
2023-01-15T13:12:28.771Z,56.20
2023-01-15T13:14:58.530Z,56.61
2023-01-15T13:17:47.331Z,55.80
2023-01-15T13:20:16.980Z,55.68
2023-01-15T13:22:54.537Z,55.44
2023-01-15T13:25:25.900Z,55.85
2023-01-15T13:28:12.104Z,55.63
2023-01-15T13:31:05.009Z,56.18
2023-01-15T13:33:37.405Z,55.67
2023-01-15T13:36:25.768Z,55.92
2023-01-15T13:38:56.978Z,56.39
2023-01-15T13:41:47.627Z,56.56
2023-01-15T13:44:24.114Z,56.23
2023-01-15T13:47:02.360Z,55.58
2023-01-15T13:49:36.589Z,55.73
2023-01-15T13:52:07.692Z,56.22
2023-01-15T13:54:42.171Z,56.49
2023-01-15T13:57:24.021Z,56.91
2023-01-15T13:59:53.452Z,57.14
2023-01-15T14:02:21.919Z,57.51
2023-01-15T14:04:51.080Z,57.99
2023-01-15T14:07:31.949Z,57.74
2023-01-15T14:10:22.491Z,58.33
2023-01-15T14:13:07.779Z,59.11
2023-01-15T14:15:51.786Z,59.39
2023-01-15T14:18:32.723Z,59.75
2023-01-15T14:21:02.784Z,59.95
2023-01-15T14:23:38.594Z,60.26
2023-01-15T14:26:08.045Z,60.18
2023-01-15T14:28:46.719Z,60.48
2023-01-15T14:31:15.921Z,60.46
2023-01-15T14:33:53.166Z,60.60
2023-01-15T14:36:28.191Z,60.99
2023-01-15T14:39:02.287Z,61.37
2023-01-15T14:41:33.261Z,61.91
2023-01-15T14:44:04.147Z,61.78
2023-01-15T14:46:35.201Z,62.16
2023-01-15T14:49:05.215Z,62.13
2023-01-15T14:51:37.785Z,62.47
2023-01-15T14:54:15.861Z,62.39
2023-01-15T14:56:49.914Z,62.99
2023-01-15T14:59:26.959Z,63.79
2023-01-15T15:02:00.980Z,64.29
2023-01-15T15:04:33.605Z,64.00
2023-01-15T15:07:03.981Z,64.25
2023-01-15T15:09:43.827Z,64.68
2023-01-15T15:12:37.281Z,65.02
2023-01-15T15:15:22.014Z,65.80
2023-01-15T15:18:06.519Z,65.76
2023-01-15T15:20:50.473Z,65.73
2023-01-15T15:23:27.480Z,65.70
2023-01-15T15:26:00.450Z,66.44
2023-01-15T15:28:30.829Z,66.72
2023-01-15T15:31:02.054Z,67.10
2023-01-15T15:33:41.361Z,67.18
2023-01-15T15:36:10.694Z,67.23
2023-01-15T15:38:45.152Z,66.90
2023-01-15T15:41:18.960Z,66.86
2023-01-15T15:44:10.427Z,67.09
2023-01-15T15:47:09.387Z,67.23
2023-01-15T15:49:40.508Z,67.33
2023-01-15T15:52:22.709Z,67.39
2023-01-15T15:54:58.818Z,67.33
2023-01-15T15:57:29.887Z,67.13
2023-01-15T16:00:00.809Z,66.59
2023-01-15T16:02:36.785Z,66.99
2023-01-15T16:05:19.765Z,67.19
2023-01-15T16:07:49.067Z,67.22
2023-01-15T16:10:20.116Z,67.44
2023-01-15T16:12:52.879Z,67.45
2023-01-15T16:15:24.875Z,67.24
2023-01-15T16:17:54.813Z,66.46
2023-01-15T16:20:24.844Z,66.56
2023-01-15T16:22:56.348Z,66.70
2023-01-15T16:25:27.184Z,66.90
2023-01-15T16:28:00.026Z,66.96
2023-01-15T16:30:34.918Z,66.59
2023-01-15T16:33:06.858Z,66.68
2023-01-15T16:35:38.645Z,66.72
2023-01-15T16:38:19.283Z,66.80
2023-01-15T16:40:48.710Z,67.04
2023-01-15T16:43:23.921Z,66.64
2023-01-15T16:46:08.656Z,66.58
2023-01-15T16:48:38.650Z,66.73
2023-01-15T16:51:26.797Z,66.61
2023-01-15T16:53:56.401Z,66.91
2023-01-15T16:56:48.933Z,67.15
2023-01-15T16:59:19.888Z,67.85
2023-01-15T17:01:49.462Z,68.12
2023-01-15T17:04:38.205Z,68.03
2023-01-15T17:07:15.072Z,68.06
2023-01-15T17:09:46.219Z,68.16
2023-01-15T17:12:24.844Z,67.93
2023-01-15T17:14:54.307Z,67.72
2023-01-15T17:17:24.168Z,67.78
2023-01-15T17:19:55.431Z,68.09
2023-01-15T17:22:26.092Z,68.10
2023-01-15T17:24:56.762Z,68.72
2023-01-15T17:27:27.202Z,69.12
2023-01-15T17:29:57.055Z,68.98
2023-01-15T17:32:36.340Z,69.25
2023-01-15T17:35:06.844Z,69.52
2023-01-15T17:37:36.528Z,69.74
2023-01-15T17:40:06.521Z,69.79
2023-01-15T17:42:36.452Z,69.47
2023-01-15T17:45:06.287Z,69.49
2023-01-15T17:47:36.156Z,69.49
2023-01-15T17:50:05.862Z,69.73
2023-01-15T17:52:37.456Z,69.20
2023-01-15T17:55:26.670Z,69.65
2023-01-15T17:58:15.689Z,69.90
2023-01-15T18:01:09.678Z,70.02
2023-01-15T18:04:05.608Z,70.18
2023-01-15T18:06:35.457Z,70.33
2023-01-15T18:09:06.240Z,70.39
2023-01-15T18:11:36.108Z,70.53
2023-01-15T18:14:06.167Z,69.92
2023-01-15T18:16:35.552Z,70.70
2023-01-15T18:19:06.021Z,70.96
2023-01-15T18:21:40.458Z,71.09
2023-01-15T18:24:12.845Z,70.93
2023-01-15T18:26:42.498Z,70.88
2023-01-15T18:29:12.187Z,70.95
2023-01-15T18:31:42.166Z,71.06
2023-01-15T18:34:11.802Z,71.06
2023-01-15T18:36:42.062Z,71.62
2023-01-15T18:39:13.740Z,72.12
2023-01-15T18:41:44.445Z,71.96
2023-01-15T18:44:36.083Z,71.74
2023-01-15T18:47:09.911Z,71.90
2023-01-15T18:49:42.694Z,71.95
2023-01-15T18:52:32.782Z,72.43
2023-01-15T18:55:02.889Z,72.44
2023-01-15T18:57:32.923Z,72.67
2023-01-15T19:00:03.217Z,72.22
2023-01-15T19:02:32.982Z,72.23
2023-01-15T19:05:02.313Z,72.34
2023-01-15T19:07:31.376Z,72.17
2023-01-15T19:10:00.634Z,72.89
2023-01-15T19:12:30.014Z,72.61
2023-01-15T19:15:18.182Z,73.03
2023-01-15T19:18:07.078Z,73.36
2023-01-15T19:20:37.873Z,73.46
2023-01-15T19:23:07.942Z,73.51
2023-01-15T19:25:42.449Z,73.96
2023-01-15T19:28:14.842Z,73.91
2023-01-15T19:31:05.529Z,74.42
2023-01-15T19:33:36.036Z,74.45
2023-01-15T19:36:05.760Z,74.21
2023-01-15T19:38:46.124Z,73.64
2023-01-15T19:41:35.631Z,73.69
2023-01-15T19:44:24.198Z,73.54
2023-01-15T19:47:12.410Z,73.64
2023-01-15T19:50:02.022Z,73.65
2023-01-15T19:52:39.022Z,73.83
2023-01-15T19:55:18.302Z,73.75
2023-01-15T19:57:49.164Z,74.09
2023-01-15T20:00:19.362Z,74.37
2023-01-15T20:02:48.743Z,73.96
2023-01-15T20:05:19.483Z,73.62
2023-01-15T20:07:49.047Z,73.42
2023-01-15T20:10:19.860Z,73.53
2023-01-15T20:13:09.417Z,73.17
2023-01-15T20:15:43.279Z,72.97
2023-01-15T20:18:14.332Z,72.98
2023-01-15T20:20:44.057Z,72.91
2023-01-15T20:23:13.837Z,72.93
2023-01-15T20:25:42.494Z,73.24
2023-01-15T20:28:13.410Z,73.43
2023-01-15T20:30:43.016Z,73.57
2023-01-15T20:33:13.245Z,73.45
2023-01-15T20:35:42.372Z,73.52
2023-01-15T20:38:12.044Z,73.26
2023-01-15T20:40:41.720Z,73.41
2023-01-15T20:43:30.750Z,74.06
2023-01-15T20:46:10.773Z,73.73
2023-01-15T20:48:59.734Z,73.61
2023-01-15T20:51:29.475Z,73.89
2023-01-15T20:53:59.532Z,74.34
2023-01-15T20:56:28.871Z,74.37
2023-01-15T20:58:58.831Z,74.55
2023-01-15T21:01:29.160Z,74.20
2023-01-15T21:03:57.785Z,74.10
2023-01-15T21:06:27.604Z,74.24
2023-01-15T21:08:57.643Z,73.94
2023-01-15T21:11:27.619Z,74.22
2023-01-15T21:13:57.302Z,74.02
2023-01-15T21:16:26.867Z,73.86
2023-01-15T21:19:01.572Z,74.20
2023-01-15T21:21:31.784Z,74.26
2023-01-15T21:24:01.656Z,73.87
2023-01-15T21:26:32.343Z,73.93
2023-01-15T21:29:01.962Z,74.18
2023-01-15T21:31:31.536Z,74.25
2023-01-15T21:34:01.117Z,74.73
2023-01-15T21:36:30.797Z,74.72
2023-01-15T21:39:01.588Z,74.76
2023-01-15T21:41:51.157Z,74.77
2023-01-15T21:44:32.579Z,75.31
2023-01-15T21:47:08.362Z,75.18
2023-01-15T21:49:38.527Z,74.98
2023-01-15T21:52:09.787Z,74.77
2023-01-15T21:54:39.236Z,74.75
2023-01-15T21:57:10.080Z,74.86
2023-01-15T21:59:41.242Z,74.98
2023-01-15T22:02:15.481Z,74.94
2023-01-15T22:04:46.419Z,74.94
2023-01-15T22:07:16.970Z,74.77
2023-01-15T22:09:46.632Z,75.18
2023-01-15T22:12:16.225Z,74.94
2023-01-15T22:14:45.888Z,74.97
2023-01-15T22:17:15.709Z,74.79
2023-01-15T22:19:45.460Z,74.60
2023-01-15T22:22:15.047Z,74.67
2023-01-15T22:24:44.293Z,74.68
2023-01-15T22:27:15.704Z,74.78
2023-01-15T22:29:45.333Z,74.80
2023-01-15T22:32:16.999Z,74.64
2023-01-15T22:34:47.190Z,74.44
2023-01-15T22:37:16.790Z,74.52
2023-01-15T22:39:47.603Z,74.73
2023-01-15T22:42:31.514Z,74.64
2023-01-15T22:45:04.453Z,74.52
2023-01-15T22:47:34.136Z,74.57
2023-01-15T22:50:03.928Z,74.63
2023-01-15T22:52:33.871Z,75.07
2023-01-15T22:55:03.046Z,75.28
2023-01-15T22:57:32.600Z,75.47
2023-01-15T23:00:02.724Z,75.32
2023-01-15T23:02:52.039Z,75.39
2023-01-15T23:05:21.824Z,75.47
2023-01-15T23:07:51.380Z,75.52
2023-01-15T23:10:21.171Z,75.68
2023-01-15T23:12:50.626Z,75.82
2023-01-15T23:15:20.030Z,75.79
2023-01-15T23:17:50.409Z,75.73
2023-01-15T23:20:19.779Z,75.70
2023-01-15T23:22:48.991Z,75.69
2023-01-15T23:25:18.250Z,76.13
2023-01-15T23:27:47.664Z,76.16
2023-01-15T23:30:17.789Z,75.67
2023-01-15T23:32:47.399Z,76.06
2023-01-15T23:35:17.034Z,75.98
2023-01-15T23:37:46.725Z,75.72
2023-01-15T23:40:16.228Z,75.95
2023-01-15T23:43:05.290Z,75.97
2023-01-15T23:45:56.058Z,76.21
2023-01-15T23:48:25.406Z,76.49
2023-01-15T23:50:54.808Z,76.43
2023-01-15T23:53:24.115Z,76.25
2023-01-15T23:55:53.631Z,76.21
2023-01-15T23:58:22.883Z,76.07
